sensor_id;sensor_type;location;lat;lon;timestamp;P1;durP1;ratioP1;P2;durP2;ratioP2
72037;SDS011;59900;50.788;12.904;2024-03-02T00:02:00;40.80;;;17.27;;
72037;SDS011;59900;50.788;12.904;2024-03-02T00:04:25;42.70;;;17.53;;
72037;SDS011;59900;50.788;12.904;2024-03-02T00:06:51;37.57;;;16.77;;
72037;SDS011;59900;50.788;12.904;2024-03-02T00:09:19;37.95;;;16.90;;
72037;SDS011;59900;50.788;12.904;2024-03-02T00:11:45;41.97;;;18.13;;
72037;SDS011;59900;50.788;12.904;2024-03-02T00:14:10;35.47;;;16.30;;
72037;SDS011;59900;50.788;12.904;2024-03-02T00:16:35;39.40;;;18.13;;
72037;SDS011;59900;50.788;12.904;2024-03-02T00:19:02;38.67;;;16.48;;
72037;SDS011;59900;50.788;12.904;2024-03-02T00:21:29;37.53;;;16.97;;
72037;SDS011;59900;50.788;12.904;2024-03-02T00:23:55;39.08;;;16.75;;
72037;SDS011;59900;50.788;12.904;2024-03-02T00:26:21;39.60;;;16.97;;
72037;SDS011;59900;50.788;12.904;2024-03-02T00:28:46;38.83;;;16.63;;
72037;SDS011;59900;50.788;12.904;2024-03-02T00:31:12;39.50;;;17.47;;
72037;SDS011;59900;50.788;12.904;2024-03-02T00:33:44;40.35;;;17.40;;
72037;SDS011;59900;50.788;12.904;2024-03-02T00:36:15;43.92;;;17.85;;
72037;SDS011;59900;50.788;12.904;2024-03-02T00:38:49;39.17;;;18.48;;
72037;SDS011;59900;50.788;12.904;2024-03-02T00:41:25;43.05;;;18.40;;
72037;SDS011;59900;50.788;12.904;2024-03-02T00:43:59;38.17;;;16.80;;
72037;SDS011;59900;50.788;12.904;2024-03-02T00:46:30;39.15;;;17.13;;
72037;SDS011;59900;50.788;12.904;2024-03-02T00:49:00;45.38;;;17.52;;
72037;SDS011;59900;50.788;12.904;2024-03-02T00:51:27;42.63;;;18.67;;
72037;SDS011;59900;50.788;12.904;2024-03-02T00:53:57;41.28;;;18.00;;
72037;SDS011;59900;50.788;12.904;2024-03-02T00:56:24;41.27;;;18.50;;
72037;SDS011;59900;50.788;12.904;2024-03-02T00:58:50;44.35;;;19.10;;
72037;SDS011;59900;50.788;12.904;2024-03-02T01:01:16;41.72;;;18.02;;
72037;SDS011;59900;50.788;12.904;2024-03-02T01:03:42;49.33;;;18.73;;
72037;SDS011;59900;50.788;12.904;2024-03-02T01:06:07;42.80;;;19.00;;
72037;SDS011;59900;50.788;12.904;2024-03-02T01:08:34;38.03;;;17.65;;
72037;SDS011;59900;50.788;12.904;2024-03-02T01:10:59;41.60;;;17.60;;
72037;SDS011;59900;50.788;12.904;2024-03-02T01:13:25;43.07;;;18.63;;
72037;SDS011;59900;50.788;12.904;2024-03-02T01:15:51;38.47;;;16.35;;
72037;SDS011;59900;50.788;12.904;2024-03-02T01:18:16;34.37;;;16.67;;
72037;SDS011;59900;50.788;12.904;2024-03-02T01:20:42;43.27;;;16.83;;
72037;SDS011;59900;50.788;12.904;2024-03-02T01:23:07;39.70;;;17.37;;
72037;SDS011;59900;50.788;12.904;2024-03-02T01:25:32;35.93;;;16.17;;
72037;SDS011;59900;50.788;12.904;2024-03-02T01:27:58;36.63;;;16.27;;
72037;SDS011;59900;50.788;12.904;2024-03-02T01:30:23;34.60;;;14.97;;
72037;SDS011;59900;50.788;12.904;2024-03-02T01:32:48;31.57;;;13.83;;
72037;SDS011;59900;50.788;12.904;2024-03-02T01:35:13;34.67;;;15.20;;
72037;SDS011;59900;50.788;12.904;2024-03-02T01:37:40;33.20;;;15.27;;
72037;SDS011;59900;50.788;12.904;2024-03-02T01:40:05;31.05;;;14.57;;
72037;SDS011;59900;50.788;12.904;2024-03-02T01:42:34;30.95;;;13.63;;
72037;SDS011;59900;50.788;12.904;2024-03-02T01:45:06;27.27;;;12.77;;
72037;SDS011;59900;50.788;12.904;2024-03-02T01:47:32;28.75;;;13.10;;
72037;SDS011;59900;50.788;12.904;2024-03-02T01:49:57;29.27;;;13.83;;
72037;SDS011;59900;50.788;12.904;2024-03-02T01:52:23;23.33;;;12.07;;
72037;SDS011;59900;50.788;12.904;2024-03-02T01:54:48;23.50;;;11.17;;
72037;SDS011;59900;50.788;12.904;2024-03-02T01:57:14;24.23;;;10.97;;
72037;SDS011;59900;50.788;12.904;2024-03-02T01:59:39;25.57;;;11.90;;
72037;SDS011;59900;50.788;12.904;2024-03-02T02:02:04;28.03;;;11.57;;
72037;SDS011;59900;50.788;12.904;2024-03-02T02:04:29;25.07;;;11.53;;
72037;SDS011;59900;50.788;12.904;2024-03-02T02:06:55;24.55;;;11.18;;
72037;SDS011;59900;50.788;12.904;2024-03-02T02:09:21;26.97;;;11.97;;
72037;SDS011;59900;50.788;12.904;2024-03-02T02:11:46;23.37;;;10.83;;
72037;SDS011;59900;50.788;12.904;2024-03-02T02:14:12;25.42;;;11.90;;
72037;SDS011;59900;50.788;12.904;2024-03-02T02:16:37;22.67;;;11.63;;
72037;SDS011;59900;50.788;12.904;2024-03-02T02:19:02;23.67;;;10.77;;
72037;SDS011;59900;50.788;12.904;2024-03-02T02:21:28;28.80;;;11.70;;
72037;SDS011;59900;50.788;12.904;2024-03-02T02:23:53;30.33;;;13.93;;
72037;SDS011;59900;50.788;12.904;2024-03-02T02:26:18;23.30;;;11.00;;
72037;SDS011;59900;50.788;12.904;2024-03-02T02:28:43;26.67;;;11.87;;
72037;SDS011;59900;50.788;12.904;2024-03-02T02:31:12;20.33;;;10.40;;
72037;SDS011;59900;50.788;12.904;2024-03-02T02:33:41;20.90;;;10.00;;
72037;SDS011;59900;50.788;12.904;2024-03-02T02:36:07;19.33;;;9.55;;
72037;SDS011;59900;50.788;12.904;2024-03-02T02:38:32;22.60;;;10.95;;
72037;SDS011;59900;50.788;12.904;2024-03-02T02:41:01;21.43;;;10.10;;
72037;SDS011;59900;50.788;12.904;2024-03-02T02:43:27;21.08;;;10.48;;
72037;SDS011;59900;50.788;12.904;2024-03-02T02:45:52;19.57;;;10.33;;
72037;SDS011;59900;50.788;12.904;2024-03-02T02:48:17;20.03;;;9.80;;
72037;SDS011;59900;50.788;12.904;2024-03-02T02:50:42;22.07;;;9.97;;
72037;SDS011;59900;50.788;12.904;2024-03-02T02:53:08;21.70;;;10.50;;
72037;SDS011;59900;50.788;12.904;2024-03-02T02:55:34;24.33;;;11.10;;
72037;SDS011;59900;50.788;12.904;2024-03-02T02:58:05;28.00;;;13.07;;
72037;SDS011;59900;50.788;12.904;2024-03-02T03:00:33;26.52;;;13.02;;
72037;SDS011;59900;50.788;12.904;2024-03-02T03:02:58;26.33;;;12.60;;
72037;SDS011;59900;50.788;12.904;2024-03-02T03:05:24;28.50;;;12.98;;
72037;SDS011;59900;50.788;12.904;2024-03-02T03:07:49;28.50;;;13.90;;
72037;SDS011;59900;50.788;12.904;2024-03-02T03:10:17;22.60;;;11.43;;
72037;SDS011;59900;50.788;12.904;2024-03-02T03:12:42;25.13;;;11.63;;
72037;SDS011;59900;50.788;12.904;2024-03-02T03:15:08;25.23;;;12.07;;
72037;SDS011;59900;50.788;12.904;2024-03-02T03:17:34;27.60;;;12.25;;
72037;SDS011;59900;50.788;12.904;2024-03-02T03:20:00;26.13;;;12.30;;
72037;SDS011;59900;50.788;12.904;2024-03-02T03:22:27;25.50;;;12.18;;
72037;SDS011;59900;50.788;12.904;2024-03-02T03:24:52;23.10;;;11.10;;
72037;SDS011;59900;50.788;12.904;2024-03-02T03:27:18;25.80;;;12.60;;
72037;SDS011;59900;50.788;12.904;2024-03-02T03:29:44;23.42;;;11.13;;
72037;SDS011;59900;50.788;12.904;2024-03-02T03:32:10;22.47;;;10.30;;
72037;SDS011;59900;50.788;12.904;2024-03-02T03:34:35;24.57;;;12.17;;
72037;SDS011;59900;50.788;12.904;2024-03-02T03:37:00;25.42;;;12.63;;
72037;SDS011;59900;50.788;12.904;2024-03-02T03:39:26;23.57;;;11.90;;
72037;SDS011;59900;50.788;12.904;2024-03-02T03:41:51;24.73;;;12.90;;
72037;SDS011;59900;50.788;12.904;2024-03-02T03:44:16;23.17;;;12.03;;
72037;SDS011;59900;50.788;12.904;2024-03-02T03:46:42;27.40;;;12.53;;
72037;SDS011;59900;50.788;12.904;2024-03-02T03:49:07;25.73;;;12.87;;
72037;SDS011;59900;50.788;12.904;2024-03-02T03:51:33;25.67;;;12.50;;
72037;SDS011;59900;50.788;12.904;2024-03-02T03:53:58;24.90;;;11.80;;
72037;SDS011;59900;50.788;12.904;2024-03-02T03:56:23;28.00;;;13.43;;
72037;SDS011;59900;50.788;12.904;2024-03-02T03:58:49;30.20;;;13.23;;
72037;SDS011;59900;50.788;12.904;2024-03-02T04:01:14;28.00;;;13.13;;
72037;SDS011;59900;50.788;12.904;2024-03-02T04:03:39;27.87;;;13.83;;
72037;SDS011;59900;50.788;12.904;2024-03-02T04:06:05;29.60;;;13.57;;
72037;SDS011;59900;50.788;12.904;2024-03-02T04:08:30;29.20;;;13.67;;
72037;SDS011;59900;50.788;12.904;2024-03-02T04:10:55;29.33;;;13.93;;
72037;SDS011;59900;50.788;12.904;2024-03-02T04:13:20;28.87;;;14.07;;
72037;SDS011;59900;50.788;12.904;2024-03-02T04:15:46;31.80;;;13.70;;
72037;SDS011;59900;50.788;12.904;2024-03-02T04:18:11;29.70;;;14.03;;
72037;SDS011;59900;50.788;12.904;2024-03-02T04:20:36;32.93;;;13.93;;
72037;SDS011;59900;50.788;12.904;2024-03-02T04:23:02;23.93;;;11.37;;
72037;SDS011;59900;50.788;12.904;2024-03-02T04:25:27;25.17;;;12.13;;
72037;SDS011;59900;50.788;12.904;2024-03-02T04:27:52;28.57;;;12.50;;
72037;SDS011;59900;50.788;12.904;2024-03-02T04:30:18;25.60;;;12.52;;
72037;SDS011;59900;50.788;12.904;2024-03-02T04:32:43;25.93;;;12.73;;
72037;SDS011;59900;50.788;12.904;2024-03-02T04:35:11;26.87;;;12.70;;
72037;SDS011;59900;50.788;12.904;2024-03-02T04:37:37;26.38;;;12.18;;
72037;SDS011;59900;50.788;12.904;2024-03-02T04:40:02;25.00;;;11.70;;
72037;SDS011;59900;50.788;12.904;2024-03-02T04:42:28;25.75;;;11.90;;
72037;SDS011;59900;50.788;12.904;2024-03-02T04:44:53;23.00;;;10.50;;
72037;SDS011;59900;50.788;12.904;2024-03-02T04:47:18;23.20;;;11.60;;
72037;SDS011;59900;50.788;12.904;2024-03-02T04:49:44;21.50;;;10.63;;
72037;SDS011;59900;50.788;12.904;2024-03-02T04:52:09;22.23;;;11.33;;
72037;SDS011;59900;50.788;12.904;2024-03-02T04:54:34;23.50;;;10.93;;
72037;SDS011;59900;50.788;12.904;2024-03-02T04:57:19;24.23;;;11.02;;
72037;SDS011;59900;50.788;12.904;2024-03-02T04:59:45;25.03;;;11.87;;
72037;SDS011;59900;50.788;12.904;2024-03-02T05:02:10;23.83;;;11.47;;
72037;SDS011;59900;50.788;12.904;2024-03-02T05:04:35;26.03;;;11.93;;
72037;SDS011;59900;50.788;12.904;2024-03-02T05:07:00;24.50;;;11.83;;
72037;SDS011;59900;50.788;12.904;2024-03-02T05:09:26;22.93;;;11.10;;
72037;SDS011;59900;50.788;12.904;2024-03-02T05:11:51;22.10;;;10.97;;
72037;SDS011;59900;50.788;12.904;2024-03-02T05:14:35;27.05;;;11.75;;
72037;SDS011;59900;50.788;12.904;2024-03-02T05:17:01;23.90;;;12.40;;
72037;SDS011;59900;50.788;12.904;2024-03-02T05:19:26;24.60;;;11.63;;
72037;SDS011;59900;50.788;12.904;2024-03-02T05:21:51;25.17;;;11.67;;
72037;SDS011;59900;50.788;12.904;2024-03-02T05:24:17;29.30;;;12.57;;
72037;SDS011;59900;50.788;12.904;2024-03-02T05:26:42;29.90;;;11.90;;
72037;SDS011;59900;50.788;12.904;2024-03-02T05:29:07;25.30;;;11.90;;
72037;SDS011;59900;50.788;12.904;2024-03-02T05:31:32;22.60;;;11.87;;
72037;SDS011;59900;50.788;12.904;2024-03-02T05:33:58;26.90;;;11.33;;
72037;SDS011;59900;50.788;12.904;2024-03-02T05:36:23;25.57;;;10.63;;
72037;SDS011;59900;50.788;12.904;2024-03-02T05:38:48;25.07;;;11.67;;
72037;SDS011;59900;50.788;12.904;2024-03-02T05:41:13;20.67;;;10.70;;
72037;SDS011;59900;50.788;12.904;2024-03-02T05:43:39;23.53;;;11.00;;
72037;SDS011;59900;50.788;12.904;2024-03-02T05:46:04;22.60;;;10.57;;
72037;SDS011;59900;50.788;12.904;2024-03-02T05:48:29;21.63;;;11.40;;
72037;SDS011;59900;50.788;12.904;2024-03-02T05:50:55;21.17;;;10.77;;
72037;SDS011;59900;50.788;12.904;2024-03-02T05:53:20;24.03;;;11.07;;
72037;SDS011;59900;50.788;12.904;2024-03-02T05:55:45;23.27;;;11.17;;
72037;SDS011;59900;50.788;12.904;2024-03-02T05:58:10;22.90;;;11.23;;
72037;SDS011;59900;50.788;12.904;2024-03-02T06:00:54;23.58;;;10.65;;
72037;SDS011;59900;50.788;12.904;2024-03-02T06:03:20;21.97;;;11.07;;
72037;SDS011;59900;50.788;12.904;2024-03-02T06:05:45;22.07;;;11.37;;
72037;SDS011;59900;50.788;12.904;2024-03-02T06:08:10;20.83;;;10.47;;
72037;SDS011;59900;50.788;12.904;2024-03-02T06:10:35;21.30;;;10.10;;
72037;SDS011;59900;50.788;12.904;2024-03-02T06:13:01;21.10;;;10.27;;
72037;SDS011;59900;50.788;12.904;2024-03-02T06:15:26;22.03;;;10.53;;
72037;SDS011;59900;50.788;12.904;2024-03-02T06:17:51;24.07;;;12.13;;
72037;SDS011;59900;50.788;12.904;2024-03-02T06:20:17;22.43;;;11.50;;
72037;SDS011;59900;50.788;12.904;2024-03-02T06:22:42;26.27;;;11.57;;
72037;SDS011;59900;50.788;12.904;2024-03-02T06:25:07;24.37;;;11.67;;
72037;SDS011;59900;50.788;12.904;2024-03-02T06:27:33;26.27;;;11.27;;
72037;SDS011;59900;50.788;12.904;2024-03-02T06:29:58;20.67;;;11.07;;
72037;SDS011;59900;50.788;12.904;2024-03-02T06:32:23;22.47;;;10.57;;
72037;SDS011;59900;50.788;12.904;2024-03-02T06:34:50;18.50;;;10.27;;
72037;SDS011;59900;50.788;12.904;2024-03-02T06:37:15;20.20;;;10.10;;
72037;SDS011;59900;50.788;12.904;2024-03-02T06:39:41;23.60;;;11.27;;
72037;SDS011;59900;50.788;12.904;2024-03-02T06:42:06;22.67;;;10.40;;
72037;SDS011;59900;50.788;12.904;2024-03-02T06:44:31;23.13;;;10.33;;
72037;SDS011;59900;50.788;12.904;2024-03-02T06:46:56;20.07;;;10.20;;
72037;SDS011;59900;50.788;12.904;2024-03-02T06:49:22;21.43;;;9.80;;
72037;SDS011;59900;50.788;12.904;2024-03-02T06:51:47;19.57;;;10.27;;
72037;SDS011;59900;50.788;12.904;2024-03-02T06:54:12;20.90;;;10.07;;
72037;SDS011;59900;50.788;12.904;2024-03-02T06:56:37;20.87;;;10.30;;
72037;SDS011;59900;50.788;12.904;2024-03-02T06:59:04;19.20;;;9.68;;
72037;SDS011;59900;50.788;12.904;2024-03-02T07:01:29;17.77;;;9.07;;
72037;SDS011;59900;50.788;12.904;2024-03-02T07:03:54;17.67;;;8.70;;
72037;SDS011;59900;50.788;12.904;2024-03-02T07:06:19;18.37;;;9.47;;
72037;SDS011;59900;50.788;12.904;2024-03-02T07:08:45;19.43;;;9.27;;
72037;SDS011;59900;50.788;12.904;2024-03-02T07:11:10;19.47;;;10.03;;
72037;SDS011;59900;50.788;12.904;2024-03-02T07:13:35;18.03;;;9.00;;
72037;SDS011;59900;50.788;12.904;2024-03-02T07:16:00;19.33;;;9.53;;
72037;SDS011;59900;50.788;12.904;2024-03-02T07:18:31;22.00;;;10.90;;
72037;SDS011;59900;50.788;12.904;2024-03-02T07:20:58;19.45;;;9.77;;
72037;SDS011;59900;50.788;12.904;2024-03-02T07:23:25;19.98;;;9.30;;
72037;SDS011;59900;50.788;12.904;2024-03-02T07:25:52;20.47;;;9.47;;
72037;SDS011;59900;50.788;12.904;2024-03-02T07:28:21;20.02;;;10.15;;
72037;SDS011;59900;50.788;12.904;2024-03-02T07:30:46;20.60;;;9.40;;
72037;SDS011;59900;50.788;12.904;2024-03-02T07:33:11;21.70;;;9.90;;
72037;SDS011;59900;50.788;12.904;2024-03-02T07:35:37;20.13;;;9.40;;
72037;SDS011;59900;50.788;12.904;2024-03-02T07:38:02;21.38;;;9.98;;
72037;SDS011;59900;50.788;12.904;2024-03-02T07:40:28;21.23;;;9.97;;
72037;SDS011;59900;50.788;12.904;2024-03-02T07:42:53;20.60;;;9.50;;
72037;SDS011;59900;50.788;12.904;2024-03-02T07:45:18;21.93;;;10.17;;
72037;SDS011;59900;50.788;12.904;2024-03-02T07:47:43;21.77;;;8.93;;
72037;SDS011;59900;50.788;12.904;2024-03-02T07:50:09;20.27;;;9.98;;
72037;SDS011;59900;50.788;12.904;2024-03-02T07:52:34;20.73;;;9.77;;
72037;SDS011;59900;50.788;12.904;2024-03-02T07:55:00;19.93;;;9.13;;
72037;SDS011;59900;50.788;12.904;2024-03-02T07:57:25;21.80;;;9.63;;
72037;SDS011;59900;50.788;12.904;2024-03-02T07:59:50;22.97;;;9.33;;
72037;SDS011;59900;50.788;12.904;2024-03-02T08:02:16;20.83;;;9.70;;
72037;SDS011;59900;50.788;12.904;2024-03-02T08:04:41;30.40;;;10.23;;
72037;SDS011;59900;50.788;12.904;2024-03-02T08:07:06;20.10;;;9.38;;
72037;SDS011;59900;50.788;12.904;2024-03-02T08:09:32;20.33;;;9.63;;
72037;SDS011;59900;50.788;12.904;2024-03-02T08:11:57;21.73;;;9.80;;
72037;SDS011;59900;50.788;12.904;2024-03-02T08:14:23;21.27;;;9.97;;
72037;SDS011;59900;50.788;12.904;2024-03-02T08:16:48;21.27;;;10.57;;
72037;SDS011;59900;50.788;12.904;2024-03-02T08:19:13;22.23;;;9.67;;
72037;SDS011;59900;50.788;12.904;2024-03-02T08:21:39;20.90;;;9.80;;
72037;SDS011;59900;50.788;12.904;2024-03-02T08:24:04;21.33;;;9.73;;
72037;SDS011;59900;50.788;12.904;2024-03-02T08:26:30;19.37;;;9.77;;
72037;SDS011;59900;50.788;12.904;2024-03-02T08:28:56;24.05;;;10.30;;
72037;SDS011;59900;50.788;12.904;2024-03-02T08:31:22;25.95;;;9.60;;
72037;SDS011;59900;50.788;12.904;2024-03-02T08:33:47;18.10;;;9.77;;
72037;SDS011;59900;50.788;12.904;2024-03-02T08:36:13;20.97;;;9.20;;
72037;SDS011;59900;50.788;12.904;2024-03-02T08:38:38;21.70;;;9.80;;
72037;SDS011;59900;50.788;12.904;2024-03-02T08:41:04;20.17;;;9.23;;
72037;SDS011;59900;50.788;12.904;2024-03-02T08:43:29;23.87;;;9.77;;
72037;SDS011;59900;50.788;12.904;2024-03-02T08:45:54;21.47;;;9.77;;
72037;SDS011;59900;50.788;12.904;2024-03-02T08:48:20;18.77;;;8.80;;
72037;SDS011;59900;50.788;12.904;2024-03-02T08:50:46;21.13;;;9.23;;
72037;SDS011;59900;50.788;12.904;2024-03-02T08:53:11;19.97;;;9.63;;
72037;SDS011;59900;50.788;12.904;2024-03-02T08:55:36;17.37;;;8.90;;
72037;SDS011;59900;50.788;12.904;2024-03-02T08:58:01;21.07;;;9.47;;
72037;SDS011;59900;50.788;12.904;2024-03-02T09:00:27;19.83;;;9.53;;
72037;SDS011;59900;50.788;12.904;2024-03-02T09:02:52;19.27;;;9.70;;
72037;SDS011;59900;50.788;12.904;2024-03-02T09:05:17;17.17;;;8.77;;
72037;SDS011;59900;50.788;12.904;2024-03-02T09:07:43;18.27;;;8.90;;
72037;SDS011;59900;50.788;12.904;2024-03-02T09:10:08;18.67;;;8.83;;
72037;SDS011;59900;50.788;12.904;2024-03-02T09:12:34;18.98;;;9.52;;
72037;SDS011;59900;50.788;12.904;2024-03-02T09:15:00;20.77;;;9.50;;
72037;SDS011;59900;50.788;12.904;2024-03-02T09:17:26;20.08;;;9.15;;
72037;SDS011;59900;50.788;12.904;2024-03-02T09:19:51;20.50;;;9.23;;
72037;SDS011;59900;50.788;12.904;2024-03-02T09:22:17;18.70;;;8.90;;
72037;SDS011;59900;50.788;12.904;2024-03-02T09:24:43;17.30;;;8.88;;
72037;SDS011;59900;50.788;12.904;2024-03-02T09:27:08;20.93;;;9.47;;
72037;SDS011;59900;50.788;12.904;2024-03-02T09:29:34;20.73;;;9.27;;
72037;SDS011;59900;50.788;12.904;2024-03-02T09:31:59;20.17;;;9.63;;
72037;SDS011;59900;50.788;12.904;2024-03-02T09:34:24;17.87;;;8.30;;
72037;SDS011;59900;50.788;12.904;2024-03-02T09:36:50;17.83;;;8.83;;
72037;SDS011;59900;50.788;12.904;2024-03-02T09:39:16;17.38;;;8.45;;
72037;SDS011;59900;50.788;12.904;2024-03-02T09:41:42;19.97;;;9.13;;
72037;SDS011;59900;50.788;12.904;2024-03-02T09:44:09;17.95;;;7.82;;
72037;SDS011;59900;50.788;12.904;2024-03-02T09:46:34;19.67;;;8.77;;
72037;SDS011;59900;50.788;12.904;2024-03-02T09:49:01;19.88;;;8.82;;
72037;SDS011;59900;50.788;12.904;2024-03-02T09:51:27;17.17;;;8.37;;
72037;SDS011;59900;50.788;12.904;2024-03-02T09:53:52;17.80;;;7.67;;
72037;SDS011;59900;50.788;12.904;2024-03-02T09:56:19;16.00;;;7.82;;
72037;SDS011;59900;50.788;12.904;2024-03-02T09:58:45;19.80;;;8.85;;
72037;SDS011;59900;50.788;12.904;2024-03-02T10:01:10;15.17;;;8.07;;
72037;SDS011;59900;50.788;12.904;2024-03-02T10:03:39;16.90;;;8.27;;
72037;SDS011;59900;50.788;12.904;2024-03-02T10:08:49;17.65;;;8.50;;
72037;SDS011;59900;50.788;12.904;2024-03-02T10:11:28;15.57;;;7.63;;
72037;SDS011;59900;50.788;12.904;2024-03-02T10:16:37;16.58;;;7.53;;
72037;SDS011;59900;50.788;12.904;2024-03-02T10:19:20;18.17;;;7.95;;
72037;SDS011;59900;50.788;12.904;2024-03-02T10:21:47;13.48;;;7.03;;
72037;SDS011;59900;50.788;12.904;2024-03-02T10:24:14;14.43;;;7.30;;
72037;SDS011;59900;50.788;12.904;2024-03-02T10:26:39;13.77;;;6.60;;
72037;SDS011;59900;50.788;12.904;2024-03-02T10:29:06;14.17;;;6.50;;
72037;SDS011;59900;50.788;12.904;2024-03-02T10:31:33;14.30;;;7.25;;
72037;SDS011;59900;50.788;12.904;2024-03-02T10:33:58;14.10;;;7.40;;
72037;SDS011;59900;50.788;12.904;2024-03-02T10:36:25;13.27;;;6.82;;
72037;SDS011;59900;50.788;12.904;2024-03-02T10:38:50;14.85;;;7.38;;
72037;SDS011;59900;50.788;12.904;2024-03-02T10:41:20;15.00;;;6.70;;
72037;SDS011;59900;50.788;12.904;2024-03-02T10:43:48;13.37;;;6.07;;
72037;SDS011;59900;50.788;12.904;2024-03-02T10:46:18;11.93;;;6.63;;
72037;SDS011;59900;50.788;12.904;2024-03-02T10:48:44;13.02;;;5.85;;
72037;SDS011;59900;50.788;12.904;2024-03-02T10:51:10;13.73;;;6.57;;
72037;SDS011;59900;50.788;12.904;2024-03-02T10:53:36;12.80;;;6.30;;
72037;SDS011;59900;50.788;12.904;2024-03-02T10:56:01;11.70;;;6.00;;
72037;SDS011;59900;50.788;12.904;2024-03-02T10:58:32;12.25;;;6.25;;
72037;SDS011;59900;50.788;12.904;2024-03-02T11:01:02;11.25;;;6.10;;
72037;SDS011;59900;50.788;12.904;2024-03-02T11:03:29;12.95;;;6.75;;
72037;SDS011;59900;50.788;12.904;2024-03-02T11:06:00;13.33;;;6.03;;
72037;SDS011;59900;50.788;12.904;2024-03-02T11:08:25;14.00;;;6.97;;
72037;SDS011;59900;50.788;12.904;2024-03-02T11:10:59;13.35;;;6.65;;
72037;SDS011;59900;50.788;12.904;2024-03-02T11:13:32;14.60;;;7.03;;
72037;SDS011;59900;50.788;12.904;2024-03-02T11:16:43;11.93;;;6.43;;
72037;SDS011;59900;50.788;12.904;2024-03-02T11:18:57;12.57;;;5.68;;
72037;SDS011;59900;50.788;12.904;2024-03-02T11:21:23;13.75;;;6.80;;
72037;SDS011;59900;50.788;12.904;2024-03-02T11:23:49;14.10;;;6.10;;
72037;SDS011;59900;50.788;12.904;2024-03-02T11:28:43;12.70;;;5.95;;
72037;SDS011;59900;50.788;12.904;2024-03-02T11:31:08;12.57;;;5.33;;
72037;SDS011;59900;50.788;12.904;2024-03-02T11:33:34;11.87;;;5.70;;
72037;SDS011;59900;50.788;12.904;2024-03-02T11:35:59;14.07;;;6.20;;
72037;SDS011;59900;50.788;12.904;2024-03-02T11:38:27;10.43;;;5.35;;
72037;SDS011;59900;50.788;12.904;2024-03-02T11:40:53;12.25;;;5.38;;
72037;SDS011;59900;50.788;12.904;2024-03-02T11:43:19;12.93;;;5.17;;
72037;SDS011;59900;50.788;12.904;2024-03-02T11:45:44;11.30;;;5.20;;
72037;SDS011;59900;50.788;12.904;2024-03-02T11:48:11;11.80;;;4.77;;
72037;SDS011;59900;50.788;12.904;2024-03-02T11:50:42;9.50;;;4.40;;
72037;SDS011;59900;50.788;12.904;2024-03-02T11:53:12;18.13;;;4.18;;
72037;SDS011;59900;50.788;12.904;2024-03-02T11:55:38;9.60;;;3.65;;
72037;SDS011;59900;50.788;12.904;2024-03-02T11:58:05;16.73;;;4.30;;
72037;SDS011;59900;50.788;12.904;2024-03-02T12:00:31;12.50;;;4.00;;
72037;SDS011;59900;50.788;12.904;2024-03-02T12:03:04;11.32;;;4.50;;
72037;SDS011;59900;50.788;12.904;2024-03-02T12:05:31;15.73;;;5.50;;
72037;SDS011;59900;50.788;12.904;2024-03-02T12:07:57;15.50;;;5.40;;
72037;SDS011;59900;50.788;12.904;2024-03-02T12:10:27;13.85;;;5.30;;
72037;SDS011;59900;50.788;12.904;2024-03-02T12:12:58;14.97;;;5.83;;
72037;SDS011;59900;50.788;12.904;2024-03-02T12:15:28;11.38;;;4.65;;
72037;SDS011;59900;50.788;12.904;2024-03-02T12:17:55;12.70;;;4.95;;
72037;SDS011;59900;50.788;12.904;2024-03-02T12:20:21;11.15;;;4.57;;
72037;SDS011;59900;50.788;12.904;2024-03-02T12:22:48;12.10;;;4.70;;
72037;SDS011;59900;50.788;12.904;2024-03-02T12:25:14;12.23;;;5.55;;
72037;SDS011;59900;50.788;12.904;2024-03-02T12:27:40;13.68;;;4.63;;
72037;SDS011;59900;50.788;12.904;2024-03-02T12:30:06;16.93;;;5.50;;
72037;SDS011;59900;50.788;12.904;2024-03-02T12:32:35;17.83;;;5.57;;
72037;SDS011;59900;50.788;12.904;2024-03-02T12:35:01;14.43;;;5.20;;
72037;SDS011;59900;50.788;12.904;2024-03-02T12:37:26;16.13;;;5.80;;
72037;SDS011;59900;50.788;12.904;2024-03-02T12:39:53;13.57;;;5.47;;
72037;SDS011;59900;50.788;12.904;2024-03-02T12:42:18;13.80;;;5.80;;
72037;SDS011;59900;50.788;12.904;2024-03-02T12:44:43;13.63;;;5.13;;
72037;SDS011;59900;50.788;12.904;2024-03-02T12:47:08;10.80;;;4.60;;
72037;SDS011;59900;50.788;12.904;2024-03-02T12:49:34;17.53;;;5.73;;
72037;SDS011;59900;50.788;12.904;2024-03-02T12:52:00;14.95;;;5.18;;
72037;SDS011;59900;50.788;12.904;2024-03-02T12:54:25;12.67;;;5.33;;
72037;SDS011;59900;50.788;12.904;2024-03-02T12:56:51;13.02;;;5.00;;
72037;SDS011;59900;50.788;12.904;2024-03-02T12:59:19;13.88;;;5.13;;
72037;SDS011;59900;50.788;12.904;2024-03-02T13:01:53;12.85;;;4.30;;
72037;SDS011;59900;50.788;12.904;2024-03-02T13:04:26;14.07;;;4.93;;
72037;SDS011;59900;50.788;12.904;2024-03-02T13:06:54;12.20;;;4.93;;
72037;SDS011;59900;50.788;12.904;2024-03-02T13:09:22;13.80;;;4.95;;
72037;SDS011;59900;50.788;12.904;2024-03-02T13:11:48;11.82;;;5.15;;
72037;SDS011;59900;50.788;12.904;2024-03-02T13:14:14;11.07;;;5.57;;
72037;SDS011;59900;50.788;12.904;2024-03-02T13:16:39;15.27;;;5.63;;
72037;SDS011;59900;50.788;12.904;2024-03-02T13:19:08;12.38;;;5.03;;
72037;SDS011;59900;50.788;12.904;2024-03-02T13:21:34;12.40;;;5.60;;
72037;SDS011;59900;50.788;12.904;2024-03-02T13:24:00;13.02;;;5.45;;
72037;SDS011;59900;50.788;12.904;2024-03-02T13:26:26;13.70;;;5.63;;
72037;SDS011;59900;50.788;12.904;2024-03-02T13:28:51;11.33;;;5.10;;
72037;SDS011;59900;50.788;12.904;2024-03-02T13:31:16;11.80;;;5.50;;
72037;SDS011;59900;50.788;12.904;2024-03-02T13:33:42;11.47;;;5.03;;
72037;SDS011;59900;50.788;12.904;2024-03-02T13:36:07;12.27;;;5.90;;
72037;SDS011;59900;50.788;12.904;2024-03-02T13:38:33;10.27;;;5.53;;
72037;SDS011;59900;50.788;12.904;2024-03-02T13:40:58;10.47;;;5.70;;
72037;SDS011;59900;50.788;12.904;2024-03-02T13:43:25;11.40;;;5.07;;
72037;SDS011;59900;50.788;12.904;2024-03-02T13:45:51;11.57;;;5.38;;
72037;SDS011;59900;50.788;12.904;2024-03-02T13:48:17;11.07;;;4.83;;
72037;SDS011;59900;50.788;12.904;2024-03-02T13:50:42;10.43;;;5.30;;
72037;SDS011;59900;50.788;12.904;2024-03-02T13:53:07;13.27;;;5.50;;
72037;SDS011;59900;50.788;12.904;2024-03-02T13:55:33;11.32;;;5.00;;
72037;SDS011;59900;50.788;12.904;2024-03-02T13:57:59;11.87;;;5.33;;
72037;SDS011;59900;50.788;12.904;2024-03-02T14:00:24;10.30;;;5.22;;
72037;SDS011;59900;50.788;12.904;2024-03-02T14:02:50;12.63;;;5.40;;
72037;SDS011;59900;50.788;12.904;2024-03-02T14:05:15;11.70;;;4.93;;
72037;SDS011;59900;50.788;12.904;2024-03-02T14:07:41;10.80;;;5.60;;
72037;SDS011;59900;50.788;12.904;2024-03-02T14:10:07;12.43;;;5.30;;
72037;SDS011;59900;50.788;12.904;2024-03-02T14:12:32;11.23;;;5.45;;
72037;SDS011;59900;50.788;12.904;2024-03-02T14:14:57;12.33;;;6.07;;
72037;SDS011;59900;50.788;12.904;2024-03-02T14:17:24;12.53;;;5.03;;
72037;SDS011;59900;50.788;12.904;2024-03-02T14:19:49;12.13;;;5.18;;